createdAt,value
2023-01-17T00:00:13.891Z,932.51
2023-01-17T00:01:13.735Z,932.51
2023-01-17T00:02:13.901Z,932.51
2023-01-17T00:03:13.744Z,932.51
2023-01-17T00:04:13.784Z,932.51
2023-01-17T00:05:13.937Z,932.52
2023-01-17T00:06:13.723Z,932.49
2023-01-17T00:07:13.660Z,932.47
2023-01-17T00:08:13.843Z,932.45
2023-01-17T00:09:13.669Z,932.47
2023-01-17T00:10:13.653Z,932.46
2023-01-17T00:11:13.874Z,932.47
2023-01-17T00:12:13.622Z,932.45
2023-01-17T00:13:15.055Z,932.47
2023-01-17T00:14:13.748Z,932.47
2023-01-17T00:15:13.605Z,932.47
2023-01-17T00:16:13.666Z,932.49
2023-01-17T00:17:13.583Z,932.47
2023-01-17T00:18:13.607Z,932.40
2023-01-17T00:19:13.839Z,932.44
2023-01-17T00:20:13.758Z,932.47
2023-01-17T00:21:13.474Z,932.42
2023-01-17T00:22:13.501Z,932.42
2023-01-17T00:23:14.498Z,932.47
2023-01-17T00:24:13.450Z,932.49
2023-01-17T00:25:13.483Z,932.42
2023-01-17T00:26:13.582Z,932.43
2023-01-17T00:27:13.393Z,932.46
2023-01-17T00:28:13.681Z,932.42
2023-01-17T00:29:14.388Z,932.41
2023-01-17T00:30:13.395Z,932.37
2023-01-17T00:31:13.419Z,932.40
2023-01-17T00:32:13.442Z,932.41
2023-01-17T00:33:13.308Z,932.42
2023-01-17T00:34:13.342Z,932.47
2023-01-17T00:35:13.332Z,932.39
2023-01-17T00:36:13.292Z,932.32
2023-01-17T00:37:13.310Z,932.32
2023-01-17T00:38:13.715Z,932.33
2023-01-17T00:39:13.237Z,932.34
2023-01-17T00:40:13.270Z,932.41
2023-01-17T00:41:13.308Z,932.38
2023-01-17T00:42:13.213Z,932.35
2023-01-17T00:43:15.659Z,932.35
2023-01-17T00:44:13.174Z,932.35
2023-01-17T00:45:13.213Z,932.35
2023-01-17T00:46:13.154Z,932.31
2023-01-17T00:47:13.144Z,932.34
2023-01-17T00:48:13.177Z,932.29
2023-01-17T00:49:13.414Z,932.31
2023-01-17T00:50:13.104Z,932.34
2023-01-17T00:51:13.066Z,932.33
2023-01-17T00:52:13.071Z,932.31
2023-01-17T00:53:14.064Z,932.29
2023-01-17T00:54:13.040Z,932.28
2023-01-17T00:55:13.138Z,932.31
2023-01-17T00:56:13.018Z,932.27
2023-01-17T00:57:13.046Z,932.29
2023-01-17T00:58:13.086Z,932.27
2023-01-17T00:59:13.382Z,932.23
2023-01-17T01:00:12.977Z,932.31
2023-01-17T01:01:13.146Z,932.26
2023-01-17T01:02:12.978Z,932.31
2023-01-17T01:03:15.617Z,932.30
2023-01-17T01:04:12.900Z,932.33
2023-01-17T01:05:14.070Z,932.31
2023-01-17T01:06:13.042Z,932.32
2023-01-17T01:07:13.019Z,932.32
2023-01-17T01:08:13.794Z,932.37
2023-01-17T01:09:12.900Z,932.36
2023-01-17T01:10:12.828Z,932.37
2023-01-17T01:11:12.836Z,932.37
2023-01-17T01:12:12.900Z,932.35
2023-01-17T01:13:13.581Z,932.35
2023-01-17T01:14:12.788Z,932.36
2023-01-17T01:15:12.778Z,932.33
2023-01-17T01:16:12.803Z,932.33
2023-01-17T01:17:12.729Z,932.31
2023-01-17T01:18:12.777Z,932.36
2023-01-17T01:19:13.427Z,932.37
2023-01-17T01:20:12.683Z,932.35
2023-01-17T01:21:12.675Z,932.32
2023-01-17T01:22:12.717Z,932.37
2023-01-17T01:23:13.313Z,932.33
2023-01-17T01:24:12.671Z,932.30
2023-01-17T01:25:12.753Z,932.36
2023-01-17T01:26:12.622Z,932.32
2023-01-17T01:27:12.552Z,932.32
2023-01-17T01:28:12.638Z,932.33
2023-01-17T01:29:12.738Z,932.35
2023-01-17T01:30:12.667Z,932.28
2023-01-17T01:31:12.758Z,932.35
2023-01-17T01:32:12.544Z,932.34
2023-01-17T01:33:14.211Z,932.35
2023-01-17T01:34:12.717Z,932.33
2023-01-17T01:35:12.493Z,932.34
2023-01-17T01:36:12.499Z,932.36
2023-01-17T01:37:12.622Z,932.37
2023-01-17T01:38:12.529Z,932.33
2023-01-17T01:39:12.431Z,932.33
2023-01-17T01:40:12.518Z,932.32
2023-01-17T01:41:12.529Z,932.28
2023-01-17T01:42:12.415Z,932.27
2023-01-17T01:43:13.211Z,932.34
2023-01-17T01:44:12.348Z,932.29
2023-01-17T01:45:13.050Z,932.35
2023-01-17T01:46:12.341Z,932.35
2023-01-17T01:47:12.603Z,932.37
2023-01-17T01:48:12.559Z,932.39
2023-01-17T01:49:12.997Z,932.42
2023-01-17T01:50:12.298Z,932.41
2023-01-17T01:51:12.908Z,932.40
2023-01-17T01:52:12.247Z,932.40
2023-01-17T01:53:12.441Z,932.36
2023-01-17T01:54:12.213Z,932.33
2023-01-17T01:55:12.391Z,932.36
2023-01-17T01:56:12.203Z,932.35
2023-01-17T01:57:12.226Z,932.34
2023-01-17T01:58:12.226Z,932.34
2023-01-17T01:59:12.216Z,932.27
2023-01-17T02:00:12.140Z,932.32
2023-01-17T02:01:12.341Z,932.25
2023-01-17T02:02:12.114Z,932.30
2023-01-17T02:03:12.904Z,932.27
2023-01-17T02:04:12.531Z,932.25
2023-01-17T02:05:12.200Z,932.26
2023-01-17T02:06:12.057Z,932.25
2023-01-17T02:07:12.796Z,932.26
2023-01-17T02:08:13.031Z,932.25
2023-01-17T02:09:12.241Z,932.24
2023-01-17T02:10:11.994Z,932.21
2023-01-17T02:11:12.632Z,932.23
2023-01-17T02:12:11.978Z,932.26
2023-01-17T02:13:12.903Z,932.25
2023-01-17T02:14:11.943Z,932.26
2023-01-17T02:15:11.934Z,932.18
2023-01-17T02:16:11.966Z,932.12
2023-01-17T02:17:13.095Z,932.09
2023-01-17T02:18:11.899Z,932.08
2023-01-17T02:19:13.082Z,932.09
2023-01-17T02:20:11.874Z,932.05
2023-01-17T02:21:12.493Z,932.03
2023-01-17T02:22:11.871Z,932.07
2023-01-17T02:23:13.566Z,932.02
2023-01-17T02:24:11.817Z,932.03
2023-01-17T02:25:11.902Z,932.03
2023-01-17T02:26:11.952Z,932.04
2023-01-17T02:27:12.140Z,931.97
2023-01-17T02:28:11.777Z,931.99
2023-01-17T02:29:15.129Z,932.01
2023-01-17T02:30:11.841Z,931.98
2023-01-17T02:31:11.939Z,931.99
2023-01-17T02:32:11.712Z,932.01
2023-01-17T02:33:12.867Z,931.93
2023-01-17T02:34:11.858Z,931.90
2023-01-17T02:35:11.902Z,931.95
2023-01-17T02:36:11.653Z,931.93
2023-01-17T02:37:12.189Z,931.88
2023-01-17T02:38:11.710Z,931.89
2023-01-17T02:39:11.734Z,931.90
2023-01-17T02:40:11.603Z,931.93
2023-01-17T02:41:12.040Z,931.83
2023-01-17T02:42:11.675Z,931.85
2023-01-17T02:43:12.940Z,931.87
2023-01-17T02:44:11.550Z,931.85
2023-01-17T02:45:11.658Z,931.86
2023-01-17T02:46:11.728Z,931.88
2023-01-17T02:47:11.555Z,931.87
2023-01-17T02:48:11.518Z,931.87
2023-01-17T02:49:13.598Z,931.92
2023-01-17T02:50:11.522Z,931.89
2023-01-17T02:51:11.737Z,931.87
2023-01-17T02:52:11.554Z,931.83
2023-01-17T02:53:12.000Z,931.85
2023-01-17T02:54:11.508Z,931.82
2023-01-17T02:55:12.428Z,931.81
2023-01-17T02:56:11.437Z,931.73
2023-01-17T02:57:11.782Z,931.70
2023-01-17T02:58:11.614Z,931.69
2023-01-17T02:59:11.561Z,931.65
2023-01-17T03:00:11.442Z,931.67
2023-01-17T03:01:11.682Z,931.64
2023-01-17T03:02:12.410Z,931.60
2023-01-17T03:03:13.039Z,931.58
2023-01-17T03:04:14.231Z,931.64
2023-01-17T03:05:11.676Z,931.57
2023-01-17T03:06:11.238Z,931.58
2023-01-17T03:07:12.594Z,931.58
2023-01-17T03:08:11.819Z,931.60
2023-01-17T03:09:12.148Z,931.60
2023-01-17T03:10:11.178Z,931.52
2023-01-17T03:11:11.813Z,931.56
2023-01-17T03:12:12.104Z,931.57
2023-01-17T03:13:11.656Z,931.50
2023-01-17T03:14:11.096Z,931.51
2023-01-17T03:15:11.330Z,931.54
2023-01-17T03:16:12.719Z,931.51
2023-01-17T03:17:12.878Z,931.55
2023-01-17T03:18:11.039Z,931.52
2023-01-17T03:19:14.368Z,931.54
2023-01-17T03:20:11.149Z,931.55
2023-01-17T03:21:11.786Z,931.52
2023-01-17T03:22:11.031Z,931.57
2023-01-17T03:23:11.476Z,931.55
2023-01-17T03:24:10.971Z,931.49
2023-01-17T03:25:11.557Z,931.49
2023-01-17T03:26:11.151Z,931.51
2023-01-17T03:27:11.610Z,931.52
2023-01-17T03:28:10.956Z,931.45
2023-01-17T03:29:13.283Z,931.48
2023-01-17T03:30:10.920Z,931.46
2023-01-17T03:31:11.517Z,931.42
2023-01-17T03:32:10.913Z,931.43
2023-01-17T03:33:11.481Z,931.42
2023-01-17T03:34:12.399Z,931.42
2023-01-17T03:35:11.952Z,931.42
2023-01-17T03:36:10.808Z,931.40
2023-01-17T03:37:13.683Z,931.42
2023-01-17T03:38:10.860Z,931.41
2023-01-17T03:39:10.916Z,931.39
2023-01-17T03:40:10.742Z,931.39
2023-01-17T03:41:11.406Z,931.35
2023-01-17T03:42:11.433Z,931.38
2023-01-17T03:43:13.269Z,931.39
2023-01-17T03:44:10.729Z,931.35
2023-01-17T03:45:11.944Z,931.35
2023-01-17T03:46:10.769Z,931.36
2023-01-17T03:47:11.453Z,931.31
2023-01-17T03:48:10.649Z,931.33
2023-01-17T03:49:12.302Z,931.33
2023-01-17T03:50:10.626Z,931.32
2023-01-17T03:51:11.199Z,931.32
2023-01-17T03:52:10.576Z,931.30
2023-01-17T03:53:11.206Z,931.31
2023-01-17T03:54:10.638Z,931.31
2023-01-17T03:55:12.101Z,931.29
2023-01-17T03:56:10.524Z,931.28
2023-01-17T03:57:11.019Z,931.28
2023-01-17T03:58:10.524Z,931.32
2023-01-17T03:59:13.065Z,931.29
2023-01-17T04:00:10.703Z,931.24
2023-01-17T04:01:11.336Z,931.20
2023-01-17T04:02:10.542Z,931.19
2023-01-17T04:03:11.859Z,931.22
2023-01-17T04:04:12.466Z,931.18
2023-01-17T04:05:11.154Z,931.18
2023-01-17T04:06:10.442Z,931.19
2023-01-17T04:07:11.710Z,931.14
2023-01-17T04:08:11.188Z,931.11
2023-01-17T04:09:10.558Z,931.16
2023-01-17T04:10:10.340Z,931.14
2023-01-17T04:11:12.119Z,931.07
2023-01-17T04:12:10.352Z,931.04
2023-01-17T04:13:12.628Z,931.07
2023-01-17T04:14:10.355Z,930.94
2023-01-17T04:15:11.160Z,931.00
2023-01-17T04:16:10.289Z,930.90
2023-01-17T04:17:10.632Z,930.93
2023-01-17T04:18:10.221Z,930.94
2023-01-17T04:19:17.184Z,930.99
2023-01-17T04:20:10.237Z,931.07
2023-01-17T04:21:10.663Z,931.00
2023-01-17T04:22:10.217Z,931.01
2023-01-17T04:23:11.568Z,930.93
2023-01-17T04:24:10.164Z,930.89
2023-01-17T04:25:11.188Z,930.92
2023-01-17T04:26:10.177Z,930.92
2023-01-17T04:27:10.810Z,930.89
2023-01-17T04:28:10.771Z,930.94
2023-01-17T04:29:11.528Z,930.92
2023-01-17T04:30:10.088Z,930.91
2023-01-17T04:31:10.526Z,930.82
2023-01-17T04:32:10.032Z,930.82
2023-01-17T04:33:10.834Z,930.82
2023-01-17T04:34:11.851Z,930.74
2023-01-17T04:35:12.016Z,930.73
2023-01-17T04:36:10.133Z,930.70
2023-01-17T04:37:10.676Z,930.67
2023-01-17T04:38:10.083Z,930.64
2023-01-17T04:39:11.592Z,930.64
2023-01-17T04:40:10.275Z,930.59
2023-01-17T04:41:11.315Z,930.60
2023-01-17T04:42:09.902Z,930.55
2023-01-17T04:43:12.835Z,930.55
2023-01-17T04:44:10.460Z,930.51
2023-01-17T04:45:10.336Z,930.51
2023-01-17T04:46:09.902Z,930.47
2023-01-17T04:47:10.151Z,930.50
2023-01-17T04:48:09.815Z,930.47
2023-01-17T04:49:12.080Z,930.44
2023-01-17T04:50:09.828Z,930.37
2023-01-17T04:51:12.590Z,930.37
2023-01-17T04:52:09.776Z,930.41
2023-01-17T04:53:10.064Z,930.43
2023-01-17T04:54:09.974Z,930.37
2023-01-17T04:55:11.125Z,930.41
2023-01-17T04:56:09.761Z,930.42
2023-01-17T04:57:09.987Z,930.38
2023-01-17T04:58:09.756Z,930.42
2023-01-17T04:59:10.439Z,930.39
2023-01-17T05:00:09.670Z,930.38
2023-01-17T05:01:10.269Z,930.38
2023-01-17T05:02:09.685Z,930.32
2023-01-17T05:03:10.237Z,930.35
2023-01-17T05:04:12.111Z,930.33
2023-01-17T05:05:10.127Z,930.35
2023-01-17T05:06:09.560Z,930.33
2023-01-17T05:07:11.642Z,930.33
2023-01-17T05:08:09.599Z,930.29
2023-01-17T05:09:11.247Z,930.27
2023-01-17T05:10:09.507Z,930.24
2023-01-17T05:11:11.619Z,930.24
2023-01-17T05:12:09.540Z,930.31
2023-01-17T05:13:12.158Z,930.28
2023-01-17T05:14:09.548Z,930.25
2023-01-17T05:15:10.792Z,930.26
2023-01-17T05:16:09.558Z,930.28
2023-01-17T05:17:10.388Z,930.22
2023-01-17T05:18:09.421Z,930.23
2023-01-17T05:19:12.993Z,930.19
2023-01-17T05:20:09.392Z,930.18
2023-01-17T05:21:09.532Z,930.17
2023-01-17T05:22:09.346Z,930.14
2023-01-17T05:23:11.321Z,930.10
2023-01-17T05:24:09.374Z,930.08
2023-01-17T05:25:10.190Z,930.05
2023-01-17T05:26:09.332Z,930.00
2023-01-17T05:27:11.206Z,930.00
2023-01-17T05:28:09.633Z,930.02
2023-01-17T05:29:10.742Z,929.96
2023-01-17T05:30:09.270Z,929.96
2023-01-17T05:31:09.476Z,930.00
2023-01-17T05:32:09.222Z,929.95
2023-01-17T05:33:10.148Z,929.95
2023-01-17T05:34:11.236Z,929.99
2023-01-17T05:35:09.594Z,929.95
2023-01-17T05:36:09.257Z,929.99
2023-01-17T05:37:09.436Z,929.98
2023-01-17T05:38:10.348Z,929.92
2023-01-17T05:39:10.161Z,929.96
2023-01-17T05:40:09.118Z,929.93
2023-01-17T05:41:09.974Z,929.96
2023-01-17T05:42:09.163Z,929.98
2023-01-17T05:43:10.961Z,929.97
2023-01-17T05:44:09.668Z,930.00
2023-01-17T05:45:09.932Z,930.00
2023-01-17T05:46:09.273Z,929.99
2023-01-17T05:47:11.026Z,930.05
2023-01-17T05:48:08.978Z,930.04
2023-01-17T05:49:10.452Z,930.08
2023-01-17T05:50:09.114Z,930.07
2023-01-17T05:51:09.413Z,930.09
2023-01-17T05:52:09.036Z,930.07
2023-01-17T05:53:10.888Z,930.06
2023-01-17T05:54:08.916Z,930.05
2023-01-17T05:55:10.594Z,930.06
2023-01-17T05:56:08.964Z,930.05
2023-01-17T05:57:12.202Z,929.97
2023-01-17T05:58:09.002Z,930.01
2023-01-17T05:59:11.519Z,930.03
2023-01-17T06:00:08.853Z,930.01
2023-01-17T06:01:10.137Z,930.01
2023-01-17T06:02:08.788Z,930.00
2023-01-17T06:03:12.485Z,930.00
2023-01-17T06:04:12.191Z,929.97
2023-01-17T06:05:08.908Z,929.96
2023-01-17T06:06:08.806Z,929.91
2023-01-17T06:07:11.615Z,929.87
2023-01-17T06:08:09.147Z,929.86
2023-01-17T06:09:08.975Z,929.87
2023-01-17T06:10:08.701Z,929.84
2023-01-17T06:11:11.414Z,929.84
2023-01-17T06:12:08.666Z,929.83
2023-01-17T06:13:10.969Z,929.81
2023-01-17T06:14:08.921Z,929.81
2023-01-17T06:15:09.853Z,929.77
2023-01-17T06:16:08.676Z,929.78
2023-01-17T06:17:09.219Z,929.74
2023-01-17T06:18:09.172Z,929.77
2023-01-17T06:19:11.922Z,929.76
2023-01-17T06:20:08.673Z,929.70
2023-01-17T06:21:09.141Z,929.73
2023-01-17T06:22:08.529Z,929.68
2023-01-17T06:23:11.114Z,929.67
2023-01-17T06:24:08.519Z,929.63
2023-01-17T06:25:08.649Z,929.65
2023-01-17T06:26:08.470Z,929.62
2023-01-17T06:27:09.567Z,929.63
2023-01-17T06:28:09.288Z,929.57
2023-01-17T06:29:11.805Z,929.60
2023-01-17T06:30:08.453Z,929.58
2023-01-17T06:31:09.489Z,929.58
2023-01-17T06:32:08.403Z,929.55
2023-01-17T06:33:10.031Z,929.51
2023-01-17T06:34:11.815Z,929.53
2023-01-17T06:35:11.886Z,929.44
2023-01-17T06:36:08.355Z,929.40
2023-01-17T06:37:10.287Z,929.40
2023-01-17T06:38:08.665Z,929.32
2023-01-17T06:39:09.466Z,929.31
2023-01-17T06:40:08.294Z,929.31
2023-01-17T06:41:08.814Z,929.28
2023-01-17T06:42:08.274Z,929.29
2023-01-17T06:43:08.588Z,929.30
2023-01-17T06:44:08.246Z,929.30
2023-01-17T06:45:09.332Z,929.27
2023-01-17T06:46:08.236Z,929.23
2023-01-17T06:47:09.743Z,929.26
2023-01-17T06:48:08.198Z,929.28
2023-01-17T06:49:09.496Z,929.33
2023-01-17T06:50:08.174Z,929.40
2023-01-17T06:51:08.277Z,929.42
2023-01-17T06:52:08.223Z,929.42
2023-01-17T06:53:08.566Z,929.41
2023-01-17T06:54:08.112Z,929.41
2023-01-17T06:55:09.183Z,929.43
2023-01-17T06:56:08.094Z,929.34
2023-01-17T06:57:08.262Z,929.34
2023-01-17T06:58:08.111Z,929.32
2023-01-17T06:59:09.701Z,929.34
2023-01-17T07:00:08.028Z,929.31
2023-01-17T07:01:08.278Z,929.35
2023-01-17T07:02:08.015Z,929.34
2023-01-17T07:03:08.512Z,929.31
2023-01-17T07:04:08.055Z,929.26
2023-01-17T07:05:08.325Z,929.22
2023-01-17T07:06:07.930Z,929.22
2023-01-17T07:07:08.688Z,929.21
2023-01-17T07:08:07.949Z,929.22
2023-01-17T07:09:08.790Z,929.25
2023-01-17T07:10:07.924Z,929.20
2023-01-17T07:11:09.234Z,929.16
2023-01-17T07:12:07.927Z,929.16
2023-01-17T07:13:12.522Z,929.13
2023-01-17T07:14:07.851Z,929.21
2023-01-17T07:15:07.839Z,929.12
2023-01-17T07:16:07.902Z,929.19
2023-01-17T07:17:08.489Z,929.17
2023-01-17T07:18:07.771Z,929.15
2023-01-17T07:19:08.907Z,929.18
2023-01-17T07:20:07.757Z,929.13
2023-01-17T07:21:08.543Z,929.07
2023-01-17T07:22:07.933Z,929.01
2023-01-17T07:23:10.040Z,929.03
2023-01-17T07:24:07.766Z,928.97
2023-01-17T07:25:08.065Z,928.99
2023-01-17T07:26:07.730Z,928.98
2023-01-17T07:27:08.789Z,928.97
2023-01-17T07:28:07.742Z,928.96
2023-01-17T07:29:09.192Z,928.96
2023-01-17T07:30:07.650Z,928.99
2023-01-17T07:31:08.508Z,928.98
2023-01-17T07:32:07.626Z,928.93
2023-01-17T07:33:08.628Z,928.98
2023-01-17T07:34:07.747Z,928.94
2023-01-17T07:35:08.048Z,928.96
2023-01-17T07:36:07.637Z,928.93
2023-01-17T07:37:08.597Z,928.89
2023-01-17T07:38:07.669Z,928.91
2023-01-17T07:39:08.772Z,928.93
2023-01-17T07:40:07.512Z,928.98
2023-01-17T07:41:10.918Z,928.99
2023-01-17T07:42:07.530Z,929.05
2023-01-17T07:43:09.292Z,929.06
2023-01-17T07:44:07.448Z,929.12
2023-01-17T07:45:08.186Z,929.14
2023-01-17T07:46:07.473Z,929.14
2023-01-17T07:47:07.665Z,929.08
2023-01-17T07:48:07.391Z,929.09
2023-01-17T07:49:08.717Z,928.99
2023-01-17T07:50:07.430Z,928.99
2023-01-17T07:51:08.470Z,928.97
2023-01-17T07:52:07.390Z,928.98
2023-01-17T07:53:07.562Z,928.91
2023-01-17T07:54:08.070Z,928.87
2023-01-17T07:55:08.092Z,928.89
2023-01-17T07:56:07.437Z,928.89
2023-01-17T07:57:07.350Z,928.89
2023-01-17T07:58:07.394Z,928.86
2023-01-17T07:59:07.581Z,928.88
2023-01-17T08:00:07.229Z,928.77
2023-01-17T08:01:08.558Z,928.78
2023-01-17T08:02:07.174Z,928.82
2023-01-17T08:03:07.738Z,928.76
2023-01-17T08:04:08.181Z,928.71
2023-01-17T08:05:07.281Z,928.66
2023-01-17T08:06:07.156Z,928.63
2023-01-17T08:07:07.326Z,928.61
2023-01-17T08:08:07.164Z,928.57
2023-01-17T08:09:07.179Z,928.48
2023-01-17T08:10:07.067Z,928.49
2023-01-17T08:11:07.249Z,928.46
2023-01-17T08:12:07.099Z,928.38
2023-01-17T08:13:07.525Z,928.32
2023-01-17T08:14:07.014Z,928.32
2023-01-17T08:15:07.031Z,928.24
2023-01-17T08:16:07.125Z,928.21
2023-01-17T08:17:07.176Z,928.17
2023-01-17T08:18:06.957Z,928.15
2023-01-17T08:19:07.398Z,928.13
2023-01-17T08:20:07.751Z,928.10
2023-01-17T08:21:06.981Z,928.14
2023-01-17T08:22:06.996Z,928.13
2023-01-17T08:23:07.257Z,928.15
2023-01-17T08:24:06.881Z,928.13
2023-01-17T08:25:07.098Z,928.18
2023-01-17T08:26:06.859Z,928.10
2023-01-17T08:27:06.915Z,928.05
2023-01-17T08:28:06.945Z,928.08
2023-01-17T08:29:07.113Z,928.17
2023-01-17T08:30:06.801Z,928.17
2023-01-17T08:31:07.169Z,928.23
2023-01-17T08:32:06.816Z,928.35
2023-01-17T08:33:07.629Z,928.35
2023-01-17T08:34:07.165Z,928.35
2023-01-17T08:35:07.334Z,928.36
2023-01-17T08:36:06.766Z,928.31
2023-01-17T08:37:06.782Z,928.31
2023-01-17T08:38:06.837Z,928.35
2023-01-17T08:39:06.863Z,928.25
2023-01-17T08:40:06.754Z,928.19
2023-01-17T08:41:06.673Z,928.14
2023-01-17T08:42:06.689Z,928.07
2023-01-17T08:43:07.515Z,928.07
2023-01-17T08:44:06.607Z,928.03
2023-01-17T08:45:06.854Z,928.01
2023-01-17T08:46:06.625Z,927.98
2023-01-17T08:47:06.717Z,927.94
2023-01-17T08:48:06.556Z,927.94
2023-01-17T08:49:06.918Z,927.87
2023-01-17T08:50:06.585Z,927.86
2023-01-17T08:51:06.878Z,927.87
2023-01-17T08:52:06.496Z,927.81
2023-01-17T08:53:07.067Z,927.78
2023-01-17T08:54:06.470Z,927.73
2023-01-17T08:55:06.629Z,927.64
2023-01-17T08:56:06.442Z,927.64
2023-01-17T08:57:06.675Z,927.55
2023-01-17T08:58:06.737Z,927.52
2023-01-17T08:59:07.567Z,927.49
2023-01-17T09:00:06.405Z,927.49
2023-01-17T09:01:06.810Z,927.42
2023-01-17T09:02:06.435Z,927.42
2023-01-17T09:03:06.679Z,927.47
2023-01-17T09:04:06.620Z,927.40
2023-01-17T09:05:06.472Z,927.40
2023-01-17T09:06:06.332Z,927.41
2023-01-17T09:07:06.525Z,927.46
2023-01-17T09:08:06.321Z,927.43
2023-01-17T09:09:06.704Z,927.40
2023-01-17T09:10:06.233Z,927.45
2023-01-17T09:11:06.291Z,927.50
2023-01-17T09:12:06.302Z,927.48
2023-01-17T09:13:07.303Z,927.54
2023-01-17T09:14:06.189Z,927.54
2023-01-17T09:15:06.307Z,927.55
2023-01-17T09:16:06.208Z,927.61
2023-01-17T09:17:06.206Z,927.62
2023-01-17T09:18:06.154Z,927.64
2023-01-17T09:19:06.739Z,927.64
2023-01-17T09:20:06.099Z,927.59
2023-01-17T09:21:06.369Z,927.59
2023-01-17T09:22:06.117Z,927.58
2023-01-17T09:23:06.211Z,927.59
2023-01-17T09:24:06.056Z,927.57
2023-01-17T09:25:06.629Z,927.56
2023-01-17T09:26:06.064Z,927.61
2023-01-17T09:27:06.039Z,927.60
2023-01-17T09:28:06.007Z,927.64
2023-01-17T09:29:06.492Z,927.60
2023-01-17T09:30:06.130Z,927.58
2023-01-17T09:31:06.205Z,927.57
2023-01-17T09:32:05.979Z,927.58
2023-01-17T09:33:06.171Z,927.57
2023-01-17T09:34:06.302Z,927.58
2023-01-17T09:35:06.058Z,927.62
2023-01-17T09:36:05.916Z,927.57
2023-01-17T09:37:06.002Z,927.61
2023-01-17T09:38:05.899Z,927.64
2023-01-17T09:39:05.949Z,927.59
2023-01-17T09:40:05.890Z,927.58
2023-01-17T09:41:06.079Z,927.57
2023-01-17T09:42:05.852Z,927.58
2023-01-17T09:43:06.308Z,927.57
2023-01-17T09:44:05.774Z,927.62
2023-01-17T09:45:05.836Z,927.59
2023-01-17T09:46:05.858Z,927.65
2023-01-17T09:47:06.200Z,927.69
2023-01-17T09:48:05.715Z,927.66
2023-01-17T09:49:06.033Z,927.66
2023-01-17T09:50:05.721Z,927.67
2023-01-17T09:51:06.239Z,927.69
2023-01-17T09:52:05.646Z,927.69
2023-01-17T09:53:06.889Z,927.68
2023-01-17T09:54:05.656Z,927.62
2023-01-17T09:55:08.072Z,927.64
2023-01-17T09:56:05.674Z,927.60
2023-01-17T09:57:06.193Z,927.57
2023-01-17T09:58:05.850Z,927.55
2023-01-17T09:59:05.891Z,927.50
2023-01-17T10:00:05.574Z,927.53
2023-01-17T10:01:06.394Z,927.52
2023-01-17T10:02:05.669Z,927.51
2023-01-17T10:03:06.017Z,927.54
2023-01-17T10:04:06.117Z,927.56
2023-01-17T10:06:15.902Z,927.55
2023-01-17T10:07:15.749Z,927.53
2023-01-17T10:08:15.677Z,927.52
2023-01-17T10:09:15.692Z,927.53
2023-01-17T10:10:15.703Z,927.49
2023-01-17T10:11:15.716Z,927.49
2023-01-17T10:12:15.712Z,927.51
2023-01-17T10:13:15.620Z,927.48
2023-01-17T10:14:15.845Z,927.50
2023-01-17T10:15:15.620Z,927.49
2023-01-17T10:16:15.624Z,927.50
2023-01-17T10:17:15.624Z,927.48
2023-01-17T10:18:28.744Z,927.51
2023-01-17T10:19:17.396Z,927.47
2023-01-17T10:20:15.505Z,927.41
2023-01-17T10:21:15.547Z,927.43
2023-01-17T10:22:15.689Z,927.44
2023-01-17T10:23:15.716Z,927.43
2023-01-17T10:24:15.771Z,927.42
2023-01-17T10:25:15.505Z,927.39
2023-01-17T10:26:15.421Z,927.40
2023-01-17T10:27:15.495Z,927.42
2023-01-17T10:28:15.433Z,927.41
2023-01-17T10:29:15.514Z,927.38
2023-01-17T10:30:15.490Z,927.38
2023-01-17T10:31:15.427Z,927.32
2023-01-17T10:32:15.347Z,927.31
2023-01-17T10:33:15.416Z,927.29
2023-01-17T10:34:15.388Z,927.29
2023-01-17T10:35:15.821Z,927.29
2023-01-17T10:36:15.443Z,927.26
2023-01-17T10:37:15.436Z,927.19
2023-01-17T10:38:15.268Z,927.16
2023-01-17T10:39:15.307Z,927.16
2023-01-17T10:40:15.394Z,927.15
2023-01-17T10:41:15.301Z,927.08
2023-01-17T10:42:15.452Z,927.04
2023-01-17T10:43:15.289Z,926.99
2023-01-17T10:44:15.934Z,926.95
2023-01-17T10:45:15.217Z,926.93
2023-01-17T10:46:15.273Z,926.95
2023-01-17T10:47:15.232Z,926.90
2023-01-17T10:48:15.315Z,926.85
2023-01-17T10:49:15.165Z,926.85
2023-01-17T10:50:15.125Z,926.81
2023-01-17T10:51:15.140Z,926.79
2023-01-17T10:52:15.198Z,926.80
2023-01-17T10:53:15.208Z,926.75
2023-01-17T10:54:15.288Z,926.75
2023-01-17T10:55:15.046Z,926.74
2023-01-17T10:56:16.021Z,926.71
2023-01-17T10:57:15.073Z,926.70
2023-01-17T10:58:15.111Z,926.71
2023-01-17T10:59:15.073Z,926.69
2023-01-17T11:00:15.133Z,926.68
2023-01-17T11:01:15.162Z,926.68
2023-01-17T11:02:15.036Z,926.62
2023-01-17T11:03:14.987Z,926.60
2023-01-17T11:04:14.960Z,926.59
2023-01-17T11:05:14.915Z,926.57
2023-01-17T11:06:15.058Z,926.57
2023-01-17T11:07:14.976Z,926.52
2023-01-17T11:08:14.987Z,926.56
2023-01-17T11:09:14.902Z,926.51
2023-01-17T11:10:14.868Z,926.50
2023-01-17T11:11:14.859Z,926.46
2023-01-17T11:12:14.894Z,926.48
2023-01-17T11:13:15.033Z,926.47
2023-01-17T11:14:14.800Z,926.47
2023-01-17T11:15:14.747Z,926.49
2023-01-17T11:16:14.877Z,926.52
2023-01-17T11:17:14.733Z,926.55
2023-01-17T11:18:14.923Z,926.51
2023-01-17T11:19:15.696Z,926.51
2023-01-17T11:20:14.728Z,926.51
2023-01-17T11:21:14.666Z,926.55
2023-01-17T11:22:14.786Z,926.51
2023-01-17T11:23:15.680Z,926.46
2023-01-17T11:24:14.666Z,926.43
2023-01-17T11:25:14.668Z,926.49
2023-01-17T11:26:14.687Z,926.45
2023-01-17T11:27:14.594Z,926.39
2023-01-17T11:28:14.815Z,926.38
2023-01-17T11:29:14.802Z,926.40
2023-01-17T11:30:14.598Z,926.40
2023-01-17T11:31:14.617Z,926.37
2023-01-17T11:32:14.543Z,926.30
2023-01-17T11:33:14.631Z,926.31
2023-01-17T11:34:14.594Z,926.27
2023-01-17T11:35:14.837Z,926.27
2023-01-17T11:36:14.688Z,926.27
2023-01-17T11:37:14.561Z,926.29
2023-01-17T11:38:14.486Z,926.33
2023-01-17T11:39:14.433Z,926.30
2023-01-17T11:40:14.525Z,926.30
2023-01-17T11:41:15.447Z,926.35
2023-01-17T11:42:14.459Z,926.32
2023-01-17T11:43:15.204Z,926.30
2023-01-17T11:44:14.403Z,926.27
2023-01-17T11:45:14.404Z,926.28
2023-01-17T11:46:14.735Z,926.20
2023-01-17T11:47:14.559Z,926.19
2023-01-17T11:48:14.637Z,926.13
2023-01-17T11:49:15.303Z,926.04
2023-01-17T11:50:14.390Z,925.98
2023-01-17T11:51:14.346Z,925.98
2023-01-17T11:52:14.424Z,925.99
2023-01-17T11:53:14.557Z,925.94
2023-01-17T11:54:14.363Z,925.93
2023-01-17T11:55:14.434Z,925.96
2023-01-17T11:56:15.248Z,925.95
2023-01-17T11:57:14.282Z,925.88
2023-01-17T11:58:14.437Z,925.86
2023-01-17T11:59:14.443Z,925.83
2023-01-17T12:00:14.281Z,925.84
2023-01-17T12:01:14.229Z,925.84
2023-01-17T12:02:14.310Z,925.81
2023-01-17T12:03:15.024Z,925.81
2023-01-17T12:04:14.229Z,925.80
2023-01-17T12:05:14.412Z,925.72
2023-01-17T12:06:14.099Z,925.75
2023-01-17T12:07:14.058Z,925.70
2023-01-17T12:08:14.065Z,925.66
2023-01-17T12:09:14.041Z,925.57
2023-01-17T12:10:14.145Z,925.47
2023-01-17T12:11:14.210Z,925.47
2023-01-17T12:12:14.003Z,925.45
2023-01-17T12:13:14.108Z,925.40
2023-01-17T12:14:14.088Z,925.37
2023-01-17T12:15:14.002Z,925.27
2023-01-17T12:16:14.038Z,925.23
2023-01-17T12:17:14.952Z,925.23
2023-01-17T12:18:14.070Z,925.17
2023-01-17T12:19:15.143Z,925.18
2023-01-17T12:20:13.983Z,925.19
2023-01-17T12:21:13.884Z,925.18
2023-01-17T12:22:13.920Z,925.18
2023-01-17T12:23:14.001Z,925.21
2023-01-17T12:24:13.853Z,925.18
2023-01-17T12:25:13.971Z,925.11
2023-01-17T12:26:13.867Z,925.13
2023-01-17T12:27:13.771Z,925.14
2023-01-17T12:28:13.989Z,925.08
2023-01-17T12:29:14.811Z,925.11